Lubbock, TX

7:04 PM CST on January 31, 2015 (GMT -0600)
Hale County | Change Station
CLOSE
Current Station
Airport
Location: Plainview,
Elevation: 3373 ft
Nearby Weather Stations

Elev 3373 ft 34.17 °N, 101.72 °W | Updated 9 minutes ago

Fog
Fog
43 °F
Feels Like 40 °F
N
5
Wind Variable Wind from SW

Today
High -- | Low -- °F
--% Chance of Precip.
Yesterday
High -- | Low -- °F
Precip. -- in
7:44 AM 6:17 PM
Waxing Gibbous, 92% visible
Pressure 29.84 in
Visibility 5.0 miles
Clouds Overcast 500 ft
Windchill 40 °F
Dew Point 42 °F
Humidity 97%
Rainfall 0.02 in
Snow Depth Not available.
UV 0 out of 12
Pollen 3.10 out of 12
Air Quality Not available.
Flu Activity Not available.
METAR KPVW 010055Z AUTO 22004KT 5SM BR OVC005 06/06 A2984 RMK AO2 T00600055

More Conditions Fewer Conditions

Pressure 29.84 in
Visibility 5.0 miles
Clouds Overcast 500 ft
Windchill 40 °F
Dew Point 42 °F
Humidity 97%
Rainfall 0.02 in
Snow Depth Not available.
UV 0 out of 12
Pollen 3.10 out of 12
Air Quality Not available.
Flu Activity Not available.
METAR KPVW 010055Z AUTO 22004KT 5SM BR OVC005 06/06 A2984 RMK AO2 T00600055

More Conditions Fewer Conditions

10-Day Weather Forecast

Almanac

Astronomy

Jan. 31, 2015 Rise Set
Actual Time
Civil Twilight
Nautical Twilight
Astronomical Twilight
Moon
Length of Visible Light
Length of Day
Tomorrow will be .
, % of the Moon is Illuminated

Today's Extremes

State Highs State Lows

Community

WunderPhotos

Upload Photos

1,792,268 photos uploaded!

WunderBlogs® & News

Nearby

Air Quality

  Air Quality AQ Index Pollutant
Not available.

Snow Depth

Station Depth Elevation

Earthquake Activity

City Distance Mag. Time & Date
Minimum magnitude displayed is 2.5.

Coastal Water Temperatures

Place Temperature

Nearby Weather Stations